Time;durP1;ratioP1;P1;durP2;ratioP2;P2;SDS_P1;SDS_P2;PMS_P1;PMS_P2;Temp;Humidity;BMP_temperature;BMP_pressure;BME280_temperature;BME280_humidity;BME280_pressure;Samples;Min_cycle;Max_cycle;Signal;HPM_P1;HPM_P2
2022/03/08 00:00:22;;;;;;;20.17;11.90;;;1.00;77.50;;;;;;5032740;28;20037;-70
2022/03/08 00:02:48;;;;;;;21.80;12.07;;;0.90;77.60;;;;;;5031419;28;20112;-71
2022/03/08 00:05:15;;;;;;;22.05;12.48;;;1.00;77.80;;;;;;5032542;28;20088;-70
2022/03/08 00:07:41;;;;;;;19.40;11.60;;;0.90;77.90;;;;;;5032233;28;20029;-70
2022/03/08 00:10:09;;;;;;;22.52;12.25;;;0.90;78.00;;;;;;5030917;28;20022;-69
2022/03/08 00:12:35;;;;;;;24.08;13.85;;;0.90;78.00;;;;;;5031018;28;20112;-69
2022/03/08 00:15:02;;;;;;;21.40;12.52;;;0.90;78.20;;;;;;5032316;28;20025;-69
2022/03/08 00:17:27;;;;;;;20.95;12.43;;;0.90;78.20;;;;;;5032343;28;20108;-70
2022/03/08 00:19:53;;;;;;;22.30;12.40;;;0.80;78.30;;;;;;5032364;28;20072;-70
2022/03/08 00:22:18;;;;;;;19.70;12.07;;;0.80;78.50;;;;;;5032497;28;20128;-70
2022/03/08 00:24:44;;;;;;;22.90;12.27;;;0.80;78.70;;;;;;5030806;28;20132;-69
2022/03/08 00:27:10;;;;;;;19.00;12.10;;;0.70;78.70;;;;;;5038715;28;20029;-70
2022/03/08 00:29:35;;;;;;;21.30;12.80;;;0.70;79.10;;;;;;5045956;28;20045;-70
2022/03/08 00:32:01;;;;;;;22.90;11.97;;;0.70;79.10;;;;;;5039107;28;20144;-69
2022/03/08 00:34:27;;;;;;;22.20;12.33;;;0.70;79.20;;;;;;5034328;28;20440;-70
2022/03/08 00:36:52;;;;;;;22.60;12.63;;;0.70;79.20;;;;;;5034248;28;20033;-70
2022/03/08 00:39:18;;;;;;;19.77;12.73;;;0.60;79.40;;;;;;5035816;28;20052;-70
2022/03/08 00:41:45;;;;;;;19.58;11.73;;;0.60;79.50;;;;;;5034302;28;20032;-69
2022/03/08 00:44:10;;;;;;;21.13;12.32;;;0.60;79.70;;;;;;5034159;28;20044;-69
2022/03/08 00:46:36;;;;;;;18.50;11.27;;;0.60;80.00;;;;;;5035852;28;20017;-71
2022/03/08 00:49:03;;;;;;;22.73;12.77;;;0.60;80.00;;;;;;5034382;28;20276;-70
2022/03/08 00:51:29;;;;;;;19.70;11.68;;;0.60;79.90;;;;;;5037593;28;20501;-70
2022/03/08 00:53:54;;;;;;;19.93;12.23;;;0.50;80.40;;;;;;5037804;28;20169;-70
2022/03/08 00:56:20;;;;;;;22.27;12.90;;;0.50;80.40;;;;;;5036006;28;20103;-70
2022/03/08 00:58:46;;;;;;;22.30;12.53;;;0.40;80.50;;;;;;5035297;28;20036;-70
2022/03/08 01:01:11;;;;;;;23.00;12.27;;;0.40;80.90;;;;;;5036009;28;20030;-71
2022/03/08 01:03:37;;;;;;;23.50;12.77;;;0.40;81.10;;;;;;5035641;28;20256;-70
2022/03/08 01:06:03;;;;;;;19.83;12.30;;;0.40;81.20;;;;;;5035124;28;20049;-69
2022/03/08 01:08:28;;;;;;;20.87;12.00;;;0.40;81.40;;;;;;5033851;28;20372;-70
2022/03/08 01:10:54;;;;;;;19.57;11.50;;;0.40;81.50;;;;;;5033596;28;20025;-70
2022/03/08 01:13:20;;;;;;;21.97;12.13;;;0.40;81.70;;;;;;5035248;28;20026;-70
2022/03/08 01:15:45;;;;;;;22.07;12.00;;;0.40;81.70;;;;;;5035248;28;20094;-69
2022/03/08 01:18:11;;;;;;;21.17;12.13;;;0.40;81.80;;;;;;5034026;28;20060;-69
2022/03/08 01:20:37;;;;;;;22.15;12.70;;;0.40;81.80;;;;;;5034804;28;20513;-71
2022/03/08 01:23:03;;;;;;;22.70;11.90;;;0.40;81.60;;;;;;5034686;28;20490;-69
2022/03/08 01:25:29;;;;;;;22.85;11.32;;;0.40;81.70;;;;;;5034947;28;20036;-68
2022/03/08 01:27:55;;;;;;;21.93;12.00;;;0.50;81.40;;;;;;5034600;28;20029;-69
2022/03/08 01:30:23;;;;;;;20.95;11.32;;;0.50;81.20;;;;;;5034489;28;20032;-69
2022/03/08 01:32:49;;;;;;;18.25;11.13;;;0.50;80.80;;;;;;5034442;28;20017;-69
2022/03/08 01:35:16;;;;;;;24.27;11.90;;;0.60;81.00;;;;;;5034598;28;20175;-70
2022/03/08 01:37:42;;;;;;;19.50;10.63;;;0.50;81.20;;;;;;5034630;28;20025;-70
2022/03/08 01:40:09;;;;;;;21.08;11.63;;;0.50;81.20;;;;;;5034605;28;20155;-69
2022/03/08 01:42:35;;;;;;;20.30;11.65;;;0.50;80.90;;;;;;5034254;28;20126;-70
2022/03/08 01:45:02;;;;;;;19.40;11.67;;;0.60;80.70;;;;;;5034121;28;20108;-70
2022/03/08 01:47:28;;;;;;;20.92;11.30;;;0.60;80.60;;;;;;5032987;28;20315;-70
2022/03/08 01:49:54;;;;;;;19.67;10.93;;;0.60;80.70;;;;;;5032909;28;20567;-70
2022/03/08 01:52:22;;;;;;;17.92;10.88;;;0.60;80.90;;;;;;5033041;28;20454;-70
2022/03/08 01:54:49;;;;;;;16.92;10.38;;;0.60;81.10;;;;;;5037194;28;20371;-70
2022/03/08 01:57:15;;;;;;;17.27;10.57;;;0.60;82.00;;;;;;5041560;28;20022;-70
2022/03/08 01:59:41;;;;;;;22.30;11.27;;;0.60;81.30;;;;;;5039119;28;20095;-70
2022/03/08 02:02:08;;;;;;;;;;;0.60;81.30;;;;;;5034589;28;20433;-69
2022/03/08 02:04:33;;;;;;;18.17;10.63;;;0.60;81.30;;;;;;5049441;28;19935;-69
2022/03/08 02:07:01;;;;;;;18.77;10.67;;;0.60;81.40;;;;;;5034573;28;20022;-70
2022/03/08 02:09:27;;;;;;;21.27;10.98;;;0.60;81.80;;;;;;5034787;28;20021;-70
2022/03/08 02:11:52;;;;;;;18.38;11.13;;;0.50;81.80;;;;;;5033535;28;20029;-70
2022/03/08 02:14:18;;;;;;;17.57;10.67;;;0.60;81.90;;;;;;5034653;28;20036;-70
2022/03/08 02:16:45;;;;;;;17.92;10.98;;;0.60;82.00;;;;;;5033158;28;20363;-69
2022/03/08 02:19:11;;;;;;;;;;;0.70;82.50;;;;;;5034241;28;20462;-69
2022/03/08 02:21:37;;;;;;;17.13;10.75;;;0.60;81.40;;;;;;5032491;28;19963;-70
2022/03/08 02:24:03;;;;;;;16.57;9.77;;;0.60;82.10;;;;;;5033731;28;20029;-69
2022/03/08 02:26:31;;;;;;;16.90;10.15;;;0.60;81.60;;;;;;5033680;28;20598;-70
2022/03/08 02:28:58;;;;;;;18.67;10.52;;;0.60;81.80;;;;;;5048942;28;20482;-70
2022/03/08 02:31:24;;;;;;;23.00;10.95;;;0.50;82.00;;;;;;5033517;28;20021;-69
2022/03/08 02:33:50;;;;;;;16.07;9.97;;;0.50;82.20;;;;;;5033562;28;20095;-69
2022/03/08 02:36:15;;;;;;;17.50;10.60;;;0.50;83.50;;;;;;5048943;28;20083;-70
2022/03/08 02:38:41;;;;;;;16.53;10.23;;;0.50;84.10;;;;;;5032052;28;20033;-69
2022/03/08 02:41:07;;;;;;;17.30;9.67;;;0.40;84.50;;;;;;5031791;28;20068;-70
2022/03/08 02:43:32;;;;;;;17.17;9.75;;;0.40;84.80;;;;;;5033213;28;20394;-70
2022/03/08 02:45:58;;;;;;;17.97;10.60;;;0.40;85.40;;;;;;5033325;28;20363;-70
2022/03/08 02:48:30;;;;;;;17.77;10.73;;;0.30;85.90;;;;;;5033211;28;20032;-70
2022/03/08 02:50:55;;;;;;;18.55;10.50;;;0.20;86.40;;;;;;5033301;28;20044;-70
2022/03/08 02:53:21;;;;;;;16.58;9.70;;;0.10;87.10;;;;;;5034570;28;20474;-70
2022/03/08 02:55:47;;;;;;;19.37;11.13;;;0.10;87.80;;;;;;5033658;28;20059;-70
2022/03/08 02:58:13;;;;;;;19.83;10.40;;;0.00;88.20;;;;;;5034240;28;20108;-70
2022/03/08 03:00:39;;;;;;;16.33;10.45;;;-0.10;88.90;;;;;;5032220;28;20423;-70
2022/03/08 03:03:06;;;;;;;18.73;10.18;;;-0.10;89.70;;;;;;5033266;28;20091;-70
2022/03/08 03:05:32;;;;;;;17.77;10.32;;;-0.20;90.20;;;;;;5032812;28;20043;-70
2022/03/08 03:07:58;;;;;;;21.92;10.52;;;-0.20;90.40;;;;;;5033164;28;20018;-69
2022/03/08 03:10:24;;;;;;;20.25;9.82;;;-0.20;90.70;;;;;;5032592;28;20577;-69
2022/03/08 03:12:54;;;;;;;19.13;10.20;;;-0.30;90.70;;;;;;5029539;28;20447;-70
2022/03/08 03:15:20;;;;;;;15.82;9.68;;;-0.30;90.80;;;;;;5032795;28;20044;-69
2022/03/08 03:17:46;;;;;;;13.40;9.73;;;-0.40;90.50;;;;;;5034807;28;20030;-70
2022/03/08 03:20:15;;;;;;;15.30;9.60;;;-0.30;90.40;;;;;;5035353;28;20092;-69
2022/03/08 03:22:41;;;;;;;15.90;8.88;;;-0.30;90.60;;;;;;5033222;28;20037;-69
2022/03/08 03:25:08;;;;;;;17.45;9.98;;;-0.30;90.80;;;;;;5033104;28;20025;-70
2022/03/08 03:27:34;;;;;;;19.38;10.38;;;-0.30;90.90;;;;;;5031819;28;20474;-69
2022/03/08 03:30:00;;;;;;;18.65;10.10;;;-0.30;90.80;;;;;;5031356;28;20037;-70
2022/03/08 03:32:26;;;;;;;17.30;9.93;;;-0.20;90.80;;;;;;5032537;28;20104;-69
2022/03/08 03:34:51;;;;;;;15.67;9.37;;;-0.20;90.70;;;;;;5031274;28;20125;-68
2022/03/08 03:37:17;;;;;;;17.38;8.80;;;-0.20;90.70;;;;;;5048113;28;20030;-69
2022/03/08 03:39:43;;;;;;;17.88;9.65;;;-0.20;91.00;;;;;;5031589;28;20390;-70
2022/03/08 03:42:09;;;;;;;15.17;9.80;;;-0.10;90.60;;;;;;5032972;28;20033;-70
2022/03/08 03:44:35;;;;;;;16.20;8.48;;;-0.10;90.60;;;;;;5048713;28;20434;-71
2022/03/08 03:47:01;;;;;;;17.00;9.60;;;-0.10;90.20;;;;;;5031657;28;20052;-69
2022/03/08 03:49:26;;;;;;;15.45;8.23;;;0.00;90.20;;;;;;5033119;28;20097;-69
2022/03/08 03:51:53;;;;;;;15.27;8.73;;;0.00;90.20;;;;;;5032731;28;20391;-69
2022/03/08 03:54:20;;;;;;;16.63;9.13;;;0.00;90.40;;;;;;5031441;28;20022;-69
2022/03/08 03:56:46;;;;;;;18.85;9.18;;;0.00;90.40;;;;;;5031210;28;20116;-70
2022/03/08 03:59:12;;;;;;;16.00;9.25;;;0.00;90.60;;;;;;5032820;28;20087;-69
2022/03/08 04:01:38;;;;;;;15.20;9.00;;;-0.10;90.50;;;;;;5034580;28;20029;-70
2022/03/08 04:04:04;;;;;;;18.17;9.50;;;-0.10;90.70;;;;;;5055664;28;20040;-70
2022/03/08 04:06:30;;;;;;;15.38;8.95;;;-0.10;91.30;;;;;;5054543;28;20479;-69
2022/03/08 04:08:55;;;;;;;18.17;9.60;;;-0.20;91.60;;;;;;5035942;28;20048;-69
2022/03/08 04:11:21;;;;;;;16.53;9.90;;;-0.20;92.00;;;;;;5036265;28;20025;-70
2022/03/08 04:13:46;;;;;;;18.83;8.97;;;-0.30;92.10;;;;;;5036955;28;20064;-70
2022/03/08 04:16:12;;;;;;;17.87;10.07;;;-0.30;92.20;;;;;;5036982;28;20413;-69
2022/03/08 04:18:38;;;;;;;17.57;8.77;;;-0.40;92.20;;;;;;5034751;28;20087;-69
2022/03/08 04:21:04;;;;;;;18.02;9.55;;;-0.40;92.30;;;;;;5035536;28;20390;-70
2022/03/08 04:23:30;;;;;;;17.77;9.23;;;-0.40;92.40;;;;;;5035798;28;20037;-69
2022/03/08 04:25:55;;;;;;;17.30;9.50;;;-0.40;92.50;;;;;;5035686;28;20022;-69
2022/03/08 04:28:21;;;;;;;16.47;9.30;;;-0.40;92.40;;;;;;5051020;28;20049;-69
2022/03/08 04:30:47;;;;;;;17.20;9.70;;;-0.50;92.80;;;;;;5034457;28;20033;-70
2022/03/08 04:33:12;;;;;;;17.90;9.90;;;-0.50;93.30;;;;;;5035723;28;20260;-70
2022/03/08 04:35:38;;;;;;;18.93;9.30;;;-0.50;93.40;;;;;;5035744;28;20060;-69
2022/03/08 04:38:04;;;;;;;17.03;9.70;;;-0.50;93.10;;;;;;5035688;28;20475;-69
2022/03/08 04:40:30;;;;;;;17.13;9.68;;;-0.50;93.10;;;;;;5034363;28;20076;-69
2022/03/08 04:42:56;;;;;;;19.75;10.63;;;-0.50;93.40;;;;;;5035883;28;20026;-69
2022/03/08 04:45:21;;;;;;;16.90;9.27;;;-0.50;93.40;;;;;;5036219;28;20133;-70
2022/03/08 04:47:47;;;;;;;20.15;10.43;;;-0.50;93.70;;;;;;5034534;28;20040;-70
2022/03/08 04:50:16;;;;;;;17.70;9.47;;;-0.50;94.00;;;;;;5034186;28;20025;-70
2022/03/08 04:52:43;;;;;;;17.02;9.65;;;-0.50;94.00;;;;;;5035284;28;20028;-69
2022/03/08 04:55:08;;;;;;;;;;;-0.50;93.90;;;;;;5038665;28;20026;-70
2022/03/08 04:57:34;;;;;;;16.52;9.60;;;-0.60;93.90;;;;;;5042421;28;19956;-70
2022/03/08 05:00:00;;;;;;;19.45;10.45;;;-0.60;94.10;;;;;;5049600;28;20036;-70
2022/03/08 05:02:26;;;;;;;17.45;9.63;;;-0.50;94.30;;;;;;5043144;28;20045;-70
2022/03/08 05:04:52;;;;;;;15.77;8.63;;;-0.60;94.40;;;;;;5036554;28;20039;-69
2022/03/08 05:07:17;;;;;;;17.50;9.77;;;-0.60;94.60;;;;;;5039705;28;20025;-69
2022/03/08 05:09:43;;;;;;;17.10;9.97;;;-0.60;95.10;;;;;;5035665;28;20018;-69
2022/03/08 05:12:09;;;;;;;15.63;9.33;;;-0.60;94.90;;;;;;5035171;28;20467;-68
2022/03/08 05:14:35;;;;;;;15.52;9.50;;;-0.70;95.10;;;;;;5034492;28;20025;-69
2022/03/08 05:17:03;;;;;;;16.50;9.75;;;-0.60;94.70;;;;;;5033798;28;20029;-69
2022/03/08 05:19:29;;;;;;;17.13;9.88;;;-0.70;94.90;;;;;;5033331;28;20478;-68
2022/03/08 05:21:54;;;;;;;14.87;8.67;;;-0.70;95.00;;;;;;5034689;28;20044;-67
2022/03/08 05:24:20;;;;;;;16.00;8.97;;;-0.70;94.90;;;;;;5034834;28;20026;-67
2022/03/08 05:26:46;;;;;;;16.87;8.57;;;-0.70;94.40;;;;;;5034950;28;20475;-67
2022/03/08 05:29:11;;;;;;;17.60;9.07;;;-0.70;94.40;;;;;;5034551;28;20057;-67
2022/03/08 05:31:37;;;;;;;15.67;8.73;;;-0.70;94.40;;;;;;5034980;28;20033;-67
2022/03/08 05:34:02;;;;;;;18.07;8.70;;;-0.70;94.40;;;;;;5033530;28;20112;-66
2022/03/08 05:36:28;;;;;;;18.33;9.30;;;-0.70;94.30;;;;;;5034832;28;20092;-66
2022/03/08 05:38:54;;;;;;;18.30;8.60;;;-0.70;94.10;;;;;;5033448;28;20029;-67
2022/03/08 05:41:19;;;;;;;18.30;9.43;;;-0.70;94.20;;;;;;5034488;28;20033;-68
2022/03/08 05:43:45;;;;;;;19.87;9.33;;;-0.70;94.50;;;;;;5034759;28;20425;-67
2022/03/08 05:46:11;;;;;;;16.35;8.85;;;-0.70;94.60;;;;;;5034953;28;20061;-68
2022/03/08 05:48:37;;;;;;;17.70;9.00;;;-0.80;94.80;;;;;;5034860;28;20033;-67
2022/03/08 05:51:03;;;;;;;16.05;8.77;;;-0.90;95.00;;;;;;5036557;28;20022;-67
2022/03/08 05:53:29;;;;;;;16.45;8.75;;;-0.90;95.10;;;;;;5040612;28;20021;-67
2022/03/08 05:55:55;;;;;;;17.08;8.80;;;-1.00;95.30;;;;;;5040121;28;20025;-67
2022/03/08 05:58:21;;;;;;;14.50;8.53;;;-1.00;95.20;;;;;;5033769;28;20037;-67
2022/03/08 06:00:46;;;;;;;18.75;9.43;;;-0.90;95.30;;;;;;5032832;28;20355;-67
2022/03/08 06:03:12;;;;;;;16.83;8.93;;;-1.00;95.30;;;;;;5034658;28;20108;-68
2022/03/08 06:05:37;;;;;;;15.20;8.53;;;-1.00;95.40;;;;;;5036716;28;20280;-67
2022/03/08 06:08:04;;;;;;;14.60;8.60;;;-1.00;95.40;;;;;;5049590;28;20022;-66
2022/03/08 06:10:31;;;;;;;14.65;8.85;;;-1.00;95.30;;;;;;5034097;28;20026;-67
2022/03/08 06:12:56;;;;;;;17.08;9.52;;;-1.00;95.30;;;;;;5037919;28;20021;-67
2022/03/08 06:15:22;;;;;;;17.53;8.77;;;-0.90;95.30;;;;;;5036984;28;20034;-67
2022/03/08 06:17:48;;;;;;;15.43;8.13;;;-0.90;95.30;;;;;;5036202;28;20441;-68
2022/03/08 06:20:14;;;;;;;21.47;9.53;;;-0.90;95.10;;;;;;5034154;28;20029;-69
2022/03/08 06:22:40;;;;;;;13.90;8.30;;;-0.90;95.10;;;;;;5033894;28;20136;-68
2022/03/08 06:25:07;;;;;;;19.13;9.85;;;-0.90;95.10;;;;;;5033436;28;20030;-68
2022/03/08 06:27:32;;;;;;;16.23;8.20;;;-0.80;95.40;;;;;;5048655;28;20127;-67
2022/03/08 06:29:58;;;;;;;17.13;8.33;;;-0.80;95.00;;;;;;5033837;28;20107;-67
2022/03/08 06:32:24;;;;;;;14.53;8.20;;;-0.80;95.10;;;;;;5033637;28;20500;-68
2022/03/08 06:34:52;;;;;;;14.60;8.47;;;-0.80;94.90;;;;;;5033978;28;20029;-67
2022/03/08 06:37:18;;;;;;;14.10;7.85;;;-0.70;94.90;;;;;;5034169;28;20030;-68
2022/03/08 06:39:45;;;;;;;19.55;9.43;;;-0.70;94.80;;;;;;5034469;28;20022;-68
2022/03/08 06:42:10;;;;;;;;;;;-0.70;95.10;;;;;;5034880;28;20033;-67
2022/03/08 06:44:38;;;;;;;16.45;8.23;;;-0.70;95.30;;;;;;5032299;28;19909;-66
2022/03/08 06:47:06;;;;;;;14.10;7.85;;;-0.60;95.00;;;;;;5048845;28;20021;-68
2022/03/08 06:49:32;;;;;;;15.45;7.80;;;-0.60;95.10;;;;;;5033724;28;20104;-67
2022/03/08 06:51:58;;;;;;;17.38;9.38;;;-0.60;95.00;;;;;;5033463;28;20067;-67
2022/03/08 06:54:23;;;;;;;16.07;9.23;;;-0.60;95.10;;;;;;5033963;28;20022;-67
2022/03/08 06:56:49;;;;;;;17.47;9.20;;;-0.60;95.10;;;;;;5032480;28;20096;-68
2022/03/08 06:59:15;;;;;;;16.83;9.03;;;-0.60;95.40;;;;;;5050776;28;20029;-67
2022/03/08 07:01:40;;;;;;;14.90;9.15;;;-0.50;95.60;;;;;;5033453;28;20030;-69
2022/03/08 07:04:06;;;;;;;17.30;9.50;;;-0.50;95.40;;;;;;5035144;28;20033;-66
2022/03/08 07:06:32;;;;;;;17.27;8.98;;;-0.50;95.40;;;;;;5049662;28;20036;-68
2022/03/08 07:08:58;;;;;;;16.00;8.30;;;-0.40;95.20;;;;;;5033823;28;20065;-67
2022/03/08 07:11:24;;;;;;;14.13;8.30;;;-0.40;94.80;;;;;;5033670;28;20398;-67
2022/03/08 07:13:50;;;;;;;14.55;8.85;;;-0.30;94.70;;;;;;5034445;28;20025;-68
2022/03/08 07:16:16;;;;;;;15.13;8.80;;;-0.30;94.40;;;;;;5033609;28;20029;-68
2022/03/08 07:18:42;;;;;;;16.02;9.40;;;-0.20;94.20;;;;;;5035987;28;20061;-67
2022/03/08 07:21:08;;;;;;;20.53;9.33;;;-0.10;94.10;;;;;;5036414;28;20029;-68
2022/03/08 07:23:33;;;;;;;18.97;8.50;;;0.00;94.00;;;;;;5034248;28;20371;-67
2022/03/08 07:25:59;;;;;;;13.87;8.03;;;0.10;93.30;;;;;;5036262;28;20045;-68
2022/03/08 07:28:25;;;;;;;11.97;7.30;;;0.20;93.10;;;;;;5035217;28;20447;-68
2022/03/08 07:30:50;;;;;;;14.00;8.03;;;0.20;92.80;;;;;;5048762;28;20032;-67
2022/03/08 07:33:16;;;;;;;13.50;8.00;;;0.30;92.60;;;;;;5048953;28;20398;-67
2022/03/08 07:35:42;;;;;;;13.03;8.37;;;0.40;92.20;;;;;;5048681;28;20026;-68
2022/03/08 07:38:08;;;;;;;15.57;8.40;;;0.50;91.90;;;;;;5035947;28;20021;-68
2022/03/08 07:40:34;;;;;;;14.07;8.40;;;0.60;91.70;;;;;;5037358;28;20032;-67
2022/03/08 07:43:01;;;;;;;17.75;8.13;;;0.70;91.40;;;;;;5055736;28;20025;-68
2022/03/08 07:45:27;;;;;;;13.25;8.48;;;0.70;91.10;;;;;;5038560;28;20545;-68
2022/03/08 07:47:53;;;;;;;15.40;8.30;;;0.80;91.00;;;;;;5037499;28;20056;-68
2022/03/08 07:50:18;;;;;;;14.83;8.13;;;0.90;90.60;;;;;;5036098;28;20108;-67
2022/03/08 07:52:44;;;;;;;13.27;7.73;;;1.00;90.50;;;;;;5037666;28;20048;-66
2022/03/08 07:55:10;;;;;;;13.53;8.50;;;1.00;90.10;;;;;;5037560;28;20469;-68
2022/03/08 07:57:35;;;;;;;20.37;10.67;;;1.10;90.00;;;;;;5037724;28;20064;-67
2022/03/08 08:00:03;;;;;;;15.13;7.87;;;1.20;89.40;;;;;;5037149;28;20101;-67
2022/03/08 08:02:28;;;;;;;14.63;8.20;;;1.20;88.50;;;;;;5044902;28;20025;-67
2022/03/08 08:04:56;;;;;;;13.67;7.57;;;1.40;88.30;;;;;;5045456;28;20098;-67
2022/03/08 08:07:22;;;;;;;15.20;7.93;;;1.50;87.30;;;;;;5038311;28;20029;-67
2022/03/08 08:09:47;;;;;;;12.03;7.13;;;1.60;86.90;;;;;;5036434;28;20028;-68
2022/03/08 08:12:13;;;;;;;13.53;7.60;;;1.70;85.90;;;;;;5036735;28;20100;-67
2022/03/08 08:14:39;;;;;;;9.67;6.63;;;1.80;85.00;;;;;;5051798;28;20272;-67
2022/03/08 08:17:05;;;;;;;12.00;7.78;;;1.90;84.30;;;;;;5036708;28;20045;-67
2022/03/08 08:19:31;;;;;;;13.20;8.13;;;2.00;85.00;;;;;;5036099;28;20040;-66
2022/03/08 08:21:57;;;;;;;14.15;8.27;;;2.20;84.60;;;;;;5036443;28;20037;-66
2022/03/08 08:24:23;;;;;;;12.27;7.50;;;2.30;82.50;;;;;;5037181;28;20040;-66
2022/03/08 08:26:48;;;;;;;10.57;6.50;;;2.50;80.50;;;;;;5035718;28;20080;-67
2022/03/08 08:29:14;;;;;;;11.43;6.83;;;2.70;80.00;;;;;;5051466;28;20633;-67
2022/03/08 08:31:39;;;;;;;14.60;6.93;;;2.90;78.10;;;;;;5035226;28;20025;-66
2022/03/08 08:34:05;;;;;;;13.37;6.60;;;3.00;77.70;;;;;;5042692;28;20477;-66
2022/03/08 08:36:31;;;;;;;11.53;6.60;;;3.10;77.10;;;;;;5045296;28;20158;-67
2022/03/08 08:38:56;;;;;;;10.35;6.30;;;3.20;77.20;;;;;;5042079;28;20026;-67
2022/03/08 08:41:22;;;;;;;10.50;6.70;;;3.30;76.70;;;;;;5039305;28;20064;-67
2022/03/08 08:43:48;;;;;;;13.10;7.00;;;3.40;76.20;;;;;;5034532;28;20025;-67
2022/03/08 08:46:13;;;;;;;10.23;6.00;;;3.40;75.70;;;;;;5035910;28;20449;-67
2022/03/08 08:48:39;;;;;;;10.13;7.20;;;3.50;75.40;;;;;;5033361;28;20052;-67
2022/03/08 08:51:05;;;;;;;11.13;6.83;;;3.70;75.30;;;;;;5035818;28;20056;-67
2022/03/08 08:53:30;;;;;;;11.13;6.67;;;3.80;74.50;;;;;;5034803;28;20382;-66
2022/03/08 08:55:56;;;;;;;12.40;6.70;;;3.90;74.10;;;;;;5035299;28;20264;-66
2022/03/08 08:58:22;;;;;;;11.67;6.47;;;3.90;74.00;;;;;;5035636;28;20105;-66
2022/03/08 09:00:47;;;;;;;15.00;6.93;;;4.00;74.10;;;;;;5035493;28;20025;-67
2022/03/08 09:03:16;;;;;;;13.37;7.17;;;4.10;73.70;;;;;;5035065;28;20113;-66
2022/03/08 09:05:45;;;;;;;8.60;6.05;;;4.20;73.30;;;;;;5034933;28;20386;-66
2022/03/08 09:08:11;;;;;;;10.80;6.57;;;4.30;72.90;;;;;;5035243;28;20017;-67
2022/03/08 09:10:37;;;;;;;;;;;4.30;73.00;;;;;;5035420;28;20093;-67
2022/03/08 09:13:03;;;;;;;12.52;7.10;;;4.50;72.70;;;;;;5035089;28;19998;-67
2022/03/08 09:15:29;;;;;;;12.10;6.45;;;4.60;72.10;;;;;;5033896;28;20429;-67
2022/03/08 09:17:55;;;;;;;11.50;6.35;;;4.80;71.60;;;;;;5035384;28;20083;-67
2022/03/08 09:20:22;;;;;;;13.47;7.07;;;5.10;71.10;;;;;;5035226;28;20030;-67
2022/03/08 09:22:49;;;;;;;14.65;7.35;;;5.50;70.00;;;;;;5051192;28;20276;-67
2022/03/08 09:25:14;;;;;;;10.43;6.60;;;6.50;68.10;;;;;;5033885;28;20057;-67
2022/03/08 09:27:40;;;;;;;8.80;6.40;;;8.80;63.40;;;;;;5035138;28;20026;-67
2022/03/08 09:30:07;;;;;;;11.32;6.78;;;10.40;57.80;;;;;;5034978;28;20102;-67
2022/03/08 09:32:33;;;;;;;11.00;7.00;;;11.10;56.40;;;;;;5034599;28;20048;-68
2022/03/08 09:34:58;;;;;;;11.27;6.55;;;11.90;55.00;;;;;;5034528;28;20025;-67
2022/03/08 09:37:24;;;;;;;11.50;6.77;;;12.90;52.70;;;;;;5034573;28;20037;-67
2022/03/08 09:39:50;;;;;;;10.75;7.13;;;13.60;51.50;;;;;;5033574;28;20768;-69
2022/03/08 09:42:17;;;;;;;9.73;6.35;;;15.20;48.70;;;;;;5034522;28;20033;-66
2022/03/08 09:44:43;;;;;;;8.73;7.15;;;15.30;47.90;;;;;;5034372;28;20038;-67
2022/03/08 09:47:09;;;;;;;8.00;6.68;;;15.10;47.50;;;;;;5034531;28;20021;-67
2022/03/08 09:49:35;;;;;;;9.43;6.90;;;15.30;46.80;;;;;;5034331;28;20107;-67
2022/03/08 09:52:00;;;;;;;10.02;7.10;;;14.80;47.70;;;;;;5049730;28;20475;-67
2022/03/08 09:54:26;;;;;;;15.65;6.88;;;14.50;47.20;;;;;;5034398;28;20033;-67
2022/03/08 09:56:52;;;;;;;11.68;7.00;;;13.10;48.60;;;;;;5034352;28;20370;-67
2022/03/08 09:59:18;;;;;;;10.90;7.30;;;13.00;49.60;;;;;;5034322;28;20116;-67
2022/03/08 10:01:45;;;;;;;8.63;6.50;;;14.20;48.90;;;;;;5034441;28;20310;-67
2022/03/08 10:04:18;;;;;;;10.57;6.82;;;16.20;46.30;;;;;;5034432;28;20045;-67
2022/03/08 10:06:47;;;;;;;9.77;7.00;;;16.50;45.20;;;;;;5033007;28;20058;-67
2022/03/08 10:09:31;;;;;;;10.98;7.80;;;16.90;44.60;;;;;;5034325;28;20367;-67
2022/03/08 10:11:56;;;;;;;9.90;7.30;;;17.50;44.30;;;;;;5035012;28;20035;-67
2022/03/08 10:14:38;;;;;;;10.82;6.47;;;18.40;43.30;;;;;;5036125;28;20454;-67
2022/03/08 10:17:06;;;;;;;10.18;7.95;;;18.70;42.30;;;;;;5036030;28;20101;-67
2022/03/08 10:19:52;;;;;;;10.60;7.50;;;18.10;42.00;;;;;;5040192;28;20026;-67
2022/03/08 10:22:44;;;;;;;9.98;6.93;;;18.00;42.40;;;;;;5033960;28;20120;-68
2022/03/08 10:25:16;;;;;;;12.15;7.95;;;16.10;44.30;;;;;;5031673;28;20495;-67
2022/03/08 10:27:54;;;;;;;9.95;7.55;;;15.50;45.00;;;;;;5049213;28;20509;-68
2022/03/08 10:30:24;;;;;;;10.65;7.95;;;15.90;45.00;;;;;;5033818;28;20152;-67
2022/03/08 10:32:54;;;;;;;8.02;6.85;;;16.00;44.60;;;;;;5033575;28;20497;-67
2022/03/08 10:35:28;;;;;;;10.85;7.82;;;15.80;44.80;;;;;;5033831;28;20534;-67
2022/03/08 10:38:00;;;;;;;10.40;7.40;;;15.40;45.20;;;;;;5033787;28;20037;-67
2022/03/08 10:40:34;;;;;;;8.70;7.55;;;16.30;44.30;;;;;;5033644;28;20436;-67
2022/03/08 10:43:04;;;;;;;8.48;7.00;;;17.00;44.20;;;;;;5032357;28;20120;-67
2022/03/08 10:45:32;;;;;;;7.70;6.88;;;16.80;43.80;;;;;;5031971;28;20072;-67
2022/03/08 10:47:57;;;;;;;12.82;7.68;;;15.50;44.20;;;;;;5033579;28;20159;-67
2022/03/08 10:50:26;;;;;;;10.50;7.13;;;15.90;45.20;;;;;;5033390;28;20053;-67
2022/03/08 10:52:54;;;;;;;11.05;7.18;;;17.30;44.00;;;;;;5032023;28;20036;-67
2022/03/08 10:55:27;;;;;;;8.50;7.03;;;17.00;43.00;;;;;;5033360;28;20447;-67
2022/03/08 10:57:58;;;;;;;10.43;7.43;;;17.90;42.70;;;;;;5034249;28;20045;-68
2022/03/08 11:00:37;;;;;;;8.10;6.75;;;18.00;41.70;;;;;;5031855;28;20025;-67
2022/03/08 11:03:09;;;;;;;10.63;6.93;;;18.00;42.20;;;;;;5037763;28;20026;-68
2022/03/08 11:05:40;;;;;;;11.02;7.15;;;17.70;41.80;;;;;;5042076;28;20091;-67
2022/03/08 11:08:07;;;;;;;10.20;6.63;;;16.60;43.20;;;;;;5049926;28;20028;-67
2022/03/08 11:10:34;;;;;;;8.00;6.07;;;15.60;43.10;;;;;;5033564;28;20033;-68
2022/03/08 11:13:01;;;;;;;10.80;6.25;;;14.70;44.20;;;;;;5031578;28;20383;-69
2022/03/08 11:15:28;;;;;;;9.13;6.70;;;14.00;45.40;;;;;;5032922;28;20029;-67
2022/03/08 11:17:56;;;;;;;9.00;6.00;;;13.50;46.20;;;;;;5031573;28;20025;-67
2022/03/08 11:20:23;;;;;;;6.95;6.10;;;11.80;47.90;;;;;;5031185;28;20152;-67
2022/03/08 11:22:56;;;;;;;8.77;6.13;;;11.00;49.20;;;;;;5032768;28;20048;-67
2022/03/08 11:25:24;;;;;;;9.23;5.65;;;10.40;49.60;;;;;;5032659;28;20017;-68
2022/03/08 11:27:50;;;;;;;9.23;5.93;;;9.90;50.40;;;;;;5030667;28;20025;-69
2022/03/08 11:30:20;;;;;;;7.88;5.55;;;9.50;51.30;;;;;;5047379;28;20454;-67
2022/03/08 11:33:37;;;;;;;9.80;5.85;;;9.20;51.70;;;;;;5032533;28;20526;-69
2022/03/08 11:36:25;;;;;;;15.18;5.82;;;9.00;52.20;;;;;;5009926;28;20042;-69
2022/03/08 11:39:30;;;;;;;7.50;5.07;;;9.00;52.30;;;;;;5032430;28;20021;-68
2022/03/08 11:42:26;;;;;;;8.30;5.55;;;8.90;52.30;;;;;;4974967;28;20467;-68
2022/03/08 11:45:17;;;;;;;10.93;5.03;;;8.90;52.50;;;;;;4974981;28;20091;-69
2022/03/08 11:47:59;;;;;;;18.52;5.32;;;9.00;52.80;;;;;;5026786;28;20141;-68
2022/03/08 11:50:37;;;;;;;9.25;5.05;;;9.00;52.40;;;;;;5031618;28;20025;-68
2022/03/08 11:53:09;;;;;;;7.75;5.03;;;9.00;52.10;;;;;;5032757;28;20048;-68
2022/03/08 11:55:39;;;;;;;8.02;4.75;;;9.00;52.00;;;;;;5032824;28;20025;-68
2022/03/08 11:58:06;;;;;;;8.80;5.45;;;9.00;52.10;;;;;;5032644;28;20060;-69
2022/03/08 12:01:05;;;;;;;9.23;5.00;;;8.90;52.20;;;;;;5033294;28;20083;-69
2022/03/08 12:03:33;;;;;;;8.68;4.93;;;8.90;51.80;;;;;;5033331;28;20033;-68
2022/03/08 12:06:07;;;;;;;7.93;4.85;;;9.00;52.20;;;;;;5032578;28;20022;-69
2022/03/08 12:08:44;;;;;;;10.30;5.50;;;9.00;52.20;;;;;;5047798;28;20433;-69
2022/03/08 12:11:32;;;;;;;;;;;9.00;52.40;;;;;;5031910;28;20028;-68
2022/03/08 12:14:37;;;;;;;18.13;6.05;;;9.00;51.50;;;;;;5032081;28;19988;-69
2022/03/08 12:17:19;;;;;;;9.57;4.97;;;9.10;51.80;;;;;;5032198;28;20048;-68
2022/03/08 12:19:52;;;;;;;7.88;5.45;;;9.20;51.60;;;;;;5032284;28;20021;-69
2022/03/08 12:22:20;;;;;;;9.20;5.30;;;9.10;50.80;;;;;;5030818;28;20462;-68
2022/03/08 12:24:49;;;;;;;11.63;5.25;;;9.10;51.20;;;;;;5034078;28;20049;-70
2022/03/08 12:27:16;;;;;;;7.25;5.38;;;9.00;51.20;;;;;;5036040;28;20020;-70
2022/03/08 12:30:00;;;;;;;7.97;5.15;;;9.00;51.60;;;;;;5035726;28;20014;-70
2022/03/08 12:32:32;;;;;;;6.28;4.78;;;9.20;51.60;;;;;;5036476;28;20109;-71
2022/03/08 12:35:01;;;;;;;8.20;4.60;;;9.20;51.30;;;;;;5036340;28;20387;-70
2022/03/08 12:37:38;;;;;;;8.07;4.95;;;9.20;51.10;;;;;;5035938;28;20436;-70
2022/03/08 12:40:17;;;;;;;6.50;4.35;;;9.40;51.10;;;;;;5035415;28;20048;-70
2022/03/08 12:42:55;;;;;;;11.75;4.55;;;9.50;50.70;;;;;;5035654;28;20447;-70
2022/03/08 12:45:25;;;;;;;10.25;4.72;;;9.50;50.70;;;;;;5035524;28;20029;-70